Eagle Bridge, New York
Current Conditions -  °F | °C
As of 8:54 AM on Saturday 25 Oct 2014 (Local Time) from KDDH Reporting Station
Haze Haze  
Wind Chill: 46°   Ceiling: 900
Heat Index: 46°   Visibility: 5mi
Dew Point: 42°   Wind: 0mph
Humidity: 86%   Direction: NA
Pressure: 29.82"   Gusts: NA
Location:  42.95°N, 73.4°W
Report Text: KDDH 251254Z AUTO 00000KT 5SM BR OVC009 08/06 A2982 RMK AO2 SLP102 T00780056
Loading
Personal Weather Stations






























Interactive Weather Map
Tropical Storm Tracking
New forecast layout! Learn more

10-Day Weather Forecast

Advertisements
Track Severe Weather on mobile